EGPN

Dundee Airport

Dundee, United Kingdom
METAR EGPN 171550Z 26013KT 9999 FEW028 06/03 Q1015
Observed Flight Rules
Feb-17 @ 15:50 UTC (6 hours ago) Visual Flight Rules
Wind Visibility Clouds
260° at 13 knots 10,000+ meters
  • Few at 2,800' AGL
Temperatures Readings
Current 6°C / 43°F
Dewpoint 3°C / 37°F
Humidity 81%
Altimeter 29.97" Hg
Pressure 1015 hPa
Elevation 4
METAR EGPN 171550Z 26013KT 9999 FEW028 06/03 Q1015
Observed Flight Rules
Feb-17 @ 15:50 UTC
(6 hours ago)
VFR
Wind Visibility
260° at 13 knots 10,000+ meters
Clouds
  • Few at 2,800' AGL
Temperature Dewpoint
6°C / 43°F 3°C / 37°F
Humidity Altimeter Pressure
81% 29.97" Hg 1015 hPa